createdAt,value
2023-02-16T00:01:00.385Z,34.07
2023-02-16T00:03:26.836Z,36.43
2023-02-16T00:05:53.314Z,34.17
2023-02-16T00:08:19.843Z,31.80
2023-02-16T00:11:05.143Z,31.90
2023-02-16T00:13:53.063Z,38.70
2023-02-16T00:16:21.341Z,31.97
2023-02-16T00:18:48.288Z,38.17
2023-02-16T00:21:16.485Z,35.43
2023-02-16T00:23:43.150Z,34.53
2023-02-16T00:26:20.181Z,31.67
2023-02-16T00:28:48.899Z,35.93
2023-02-16T00:31:19.118Z,32.43
2023-02-16T00:33:45.995Z,35.73
2023-02-16T00:36:12.712Z,37.50
2023-02-16T00:38:39.119Z,34.63
2023-02-16T00:41:05.764Z,35.60
2023-02-16T00:43:32.393Z,36.90
2023-02-16T00:45:59.153Z,34.87
2023-02-16T00:48:25.646Z,35.10
2023-02-16T00:50:52.027Z,32.40
2023-02-16T00:53:18.419Z,33.83
2023-02-16T00:55:44.909Z,32.40
2023-02-16T00:58:23.573Z,35.77
2023-02-16T01:01:00.772Z,34.53
2023-02-16T01:03:28.909Z,34.53
2023-02-16T01:06:15.882Z,31.47
2023-02-16T01:09:00.716Z,32.97
2023-02-16T01:11:27.525Z,34.77
2023-02-16T01:13:54.833Z,36.10
2023-02-16T01:16:22.614Z,32.60
2023-02-16T01:18:49.444Z,36.20
2023-02-16T01:21:15.879Z,32.97
2023-02-16T01:23:42.290Z,32.63
2023-02-16T01:26:13.504Z,37.63
2023-02-16T01:28:39.928Z,39.33
2023-02-16T01:31:07.282Z,37.33
2023-02-16T01:33:33.746Z,37.80
2023-02-16T01:36:00.181Z,36.30
2023-02-16T01:38:28.046Z,39.43
2023-02-16T01:41:03.226Z,41.97
2023-02-16T01:43:42.445Z,40.97
2023-02-16T01:46:11.971Z,43.37
2023-02-16T01:48:38.522Z,35.20
2023-02-16T01:51:23.617Z,45.77
2023-02-16T01:54:04.532Z,44.60
2023-02-16T01:56:41.892Z,39.07
2023-02-16T01:59:20.319Z,40.27
2023-02-16T02:01:52.846Z,38.27
2023-02-16T02:04:47.209Z,37.73
2023-02-16T02:07:31.881Z,39.97
2023-02-16T02:10:14.182Z,50.30
2023-02-16T02:12:40.559Z,48.13
2023-02-16T02:15:09.245Z,37.27
2023-02-16T02:17:37.509Z,38.87
2023-02-16T02:20:03.929Z,37.37
2023-02-16T02:23:05.914Z,41.53
2023-02-16T02:25:55.839Z,38.73
2023-02-16T02:28:40.790Z,39.63
2023-02-16T02:31:22.250Z,38.50
2023-02-16T02:33:54.715Z,43.53
2023-02-16T02:36:21.187Z,39.90
2023-02-16T02:38:50.542Z,50.63
2023-02-16T02:41:24.086Z,43.20
2023-02-16T02:43:54.111Z,39.97
2023-02-16T02:46:25.010Z,48.83
2023-02-16T02:48:51.453Z,45.77
2023-02-16T02:51:30.255Z,54.03
2023-02-16T02:54:19.869Z,56.33
2023-02-16T02:57:07.265Z,53.40
2023-02-16T02:59:53.223Z,49.00
2023-02-16T03:02:21.863Z,49.43
2023-02-16T03:04:48.551Z,58.93
2023-02-16T03:07:15.160Z,60.87
2023-02-16T03:09:41.598Z,50.53
2023-02-16T03:12:27.271Z,61.33
2023-02-16T03:14:55.799Z,62.47
2023-02-16T03:17:42.561Z,65.23
2023-02-16T03:20:29.807Z,64.50
2023-02-16T03:23:15.229Z,60.30
2023-02-16T03:26:01.084Z,66.17
2023-02-16T03:28:47.809Z,60.20
2023-02-16T03:31:16.195Z,60.07
2023-02-16T03:33:43.037Z,58.93
2023-02-16T03:36:09.783Z,60.37
2023-02-16T03:38:36.234Z,62.87
2023-02-16T03:41:04.042Z,68.07
2023-02-16T03:43:30.831Z,69.03
2023-02-16T03:45:57.365Z,58.90
2023-02-16T03:48:23.901Z,66.30
2023-02-16T03:50:50.368Z,69.30
2023-02-16T03:53:18.290Z,64.83
2023-02-16T03:55:46.191Z,62.70
2023-02-16T03:58:13.934Z,64.40
2023-02-16T04:00:40.859Z,66.10
2023-02-16T04:03:08.921Z,64.13
2023-02-16T04:05:35.382Z,62.27
2023-02-16T04:08:01.884Z,60.17
2023-02-16T04:10:28.437Z,66.43
2023-02-16T04:12:54.896Z,70.70
2023-02-16T04:15:22.855Z,58.83
2023-02-16T04:17:49.614Z,58.43
2023-02-16T04:20:17.772Z,64.33
2023-02-16T04:22:44.558Z,53.83
2023-02-16T04:25:11.355Z,61.70
2023-02-16T04:27:39.117Z,61.67
2023-02-16T04:30:06.418Z,59.50
2023-02-16T04:32:33.329Z,63.40
2023-02-16T04:34:59.946Z,60.63
2023-02-16T04:37:26.352Z,63.07
2023-02-16T04:39:52.782Z,60.73
2023-02-16T04:42:19.409Z,58.10
2023-02-16T04:44:45.823Z,62.90
2023-02-16T04:47:12.168Z,56.93
2023-02-16T04:49:38.514Z,123.40
2023-02-16T04:52:05.426Z,153.47
2023-02-16T04:54:32.330Z,106.47
2023-02-16T04:56:59.279Z,82.70
2023-02-16T04:59:25.793Z,71.67
2023-02-16T05:01:53.347Z,62.37
2023-02-16T05:04:19.877Z,60.80
2023-02-16T05:06:46.309Z,57.23
2023-02-16T05:09:12.804Z,68.43
2023-02-16T05:11:57.792Z,62.17
2023-02-16T05:14:45.152Z,60.13
2023-02-16T05:17:18.847Z,60.43
2023-02-16T05:19:46.607Z,57.63
2023-02-16T05:22:13.546Z,63.67
2023-02-16T05:24:40.069Z,57.20
2023-02-16T05:27:09.451Z,58.37
2023-02-16T05:29:35.857Z,51.77
2023-02-16T05:32:04.574Z,55.83
2023-02-16T05:34:31.252Z,56.40
2023-02-16T05:36:57.658Z,56.17
2023-02-16T05:39:24.049Z,59.23
2023-02-16T05:41:50.563Z,57.93
2023-02-16T05:44:17.380Z,53.73
2023-02-16T05:46:43.870Z,58.10
2023-02-16T05:49:10.598Z,62.70
2023-02-16T05:51:37.149Z,62.03
2023-02-16T05:54:03.775Z,54.60
2023-02-16T05:56:30.205Z,61.03
2023-02-16T05:58:58.044Z,54.77
2023-02-16T06:01:24.501Z,53.97
2023-02-16T06:03:51.241Z,60.83
2023-02-16T06:06:17.926Z,54.63
2023-02-16T06:08:44.425Z,58.60
2023-02-16T06:11:31.408Z,54.70
2023-02-16T06:13:59.670Z,62.50
2023-02-16T06:16:27.266Z,56.63
2023-02-16T06:18:54.303Z,57.67
2023-02-16T06:21:21.209Z,59.90
2023-02-16T06:23:47.993Z,61.27
2023-02-16T06:26:15.039Z,61.83
2023-02-16T06:28:41.483Z,57.23
2023-02-16T06:31:08.305Z,61.33
2023-02-16T06:33:35.120Z,62.73
2023-02-16T06:36:01.900Z,64.10
2023-02-16T06:38:28.316Z,60.90
2023-02-16T06:40:55.012Z,56.47
2023-02-16T06:43:21.789Z,65.33
2023-02-16T06:45:48.169Z,59.37
2023-02-16T06:48:14.576Z,62.57
2023-02-16T06:50:40.998Z,63.63
2023-02-16T06:53:07.350Z,59.40
2023-02-16T06:55:36.826Z,65.40
2023-02-16T06:58:03.964Z,59.83
2023-02-16T07:00:30.553Z,60.90
2023-02-16T07:02:57.076Z,64.33
2023-02-16T07:05:23.785Z,61.57
2023-02-16T07:07:50.210Z,57.17
2023-02-16T07:10:16.669Z,63.57
2023-02-16T07:12:43.268Z,63.67
2023-02-16T07:15:09.708Z,63.93
2023-02-16T07:17:36.385Z,61.73
2023-02-16T07:20:04.599Z,63.10
2023-02-16T07:22:31.133Z,61.73
2023-02-16T07:24:58.954Z,59.83
2023-02-16T07:27:25.677Z,65.90
2023-02-16T07:29:52.155Z,64.73
2023-02-16T07:32:18.740Z,68.37
2023-02-16T07:34:48.218Z,62.87
2023-02-16T07:37:14.577Z,71.60
2023-02-16T07:39:40.948Z,62.83
2023-02-16T07:42:07.661Z,54.73
2023-02-16T07:44:34.060Z,58.17
2023-02-16T07:47:00.447Z,68.67
2023-02-16T07:49:26.825Z,64.57
2023-02-16T07:51:53.245Z,59.33
2023-02-16T07:54:19.686Z,62.37
2023-02-16T07:56:47.389Z,61.53
2023-02-16T07:59:15.582Z,62.57
2023-02-16T08:01:42.552Z,64.47
2023-02-16T08:04:08.999Z,68.27
2023-02-16T08:06:35.640Z,58.37
2023-02-16T08:09:02.038Z,59.40
2023-02-16T08:11:28.554Z,62.30
2023-02-16T08:13:54.964Z,58.43
2023-02-16T08:16:23.506Z,61.00
2023-02-16T08:18:50.861Z,63.90
2023-02-16T08:21:18.793Z,59.93
2023-02-16T08:23:47.893Z,61.23
2023-02-16T08:26:17.207Z,62.43
2023-02-16T08:28:47.118Z,59.33
2023-02-16T08:31:14.548Z,65.30
2023-02-16T08:33:41.261Z,58.10
2023-02-16T08:36:09.741Z,57.00
2023-02-16T08:38:36.444Z,57.17
2023-02-16T08:41:02.997Z,54.97
2023-02-16T08:43:29.550Z,63.00
2023-02-16T08:45:56.000Z,58.77
2023-02-16T08:48:23.294Z,49.63
2023-02-16T08:50:53.733Z,54.27
2023-02-16T08:53:24.591Z,58.73
2023-02-16T08:55:51.786Z,57.70
2023-02-16T08:58:18.820Z,53.67
2023-02-16T09:00:45.522Z,57.57
2023-02-16T09:03:11.875Z,56.93
2023-02-16T09:05:38.297Z,57.50
2023-02-16T09:08:04.703Z,57.53
2023-02-16T09:10:31.047Z,62.80
2023-02-16T09:12:58.184Z,58.83
2023-02-16T09:15:24.580Z,55.03
2023-02-16T09:17:50.956Z,58.97
2023-02-16T09:20:17.518Z,55.03
2023-02-16T09:25:11.615Z,53.47
2023-02-16T09:27:37.969Z,53.77
2023-02-16T09:30:06.804Z,55.60
2023-02-16T09:32:33.690Z,57.73
2023-02-16T09:35:00.795Z,57.73
2023-02-16T09:37:27.176Z,58.10
2023-02-16T09:39:53.584Z,52.90
2023-02-16T09:42:24.568Z,52.27
2023-02-16T09:44:56.345Z,51.50
2023-02-16T09:47:25.763Z,56.67
2023-02-16T09:49:53.912Z,52.87
2023-02-16T09:52:27.800Z,62.87
2023-02-16T09:54:58.214Z,60.13
2023-02-16T09:57:48.224Z,56.33
2023-02-16T10:00:33.220Z,52.63
2023-02-16T10:03:18.415Z,50.07
2023-02-16T10:05:44.787Z,55.10
2023-02-16T10:08:14.604Z,54.20
2023-02-16T10:10:41.044Z,59.67
2023-02-16T10:13:26.115Z,55.27
2023-02-16T10:15:54.209Z,56.80
2023-02-16T10:18:46.774Z,57.03
2023-02-16T10:21:15.492Z,51.63
2023-02-16T10:23:47.751Z,54.40
2023-02-16T10:26:14.071Z,54.27
2023-02-16T10:28:46.630Z,54.50
2023-02-16T10:31:22.101Z,54.37
2023-02-16T10:33:55.794Z,52.13
2023-02-16T10:36:37.574Z,54.87
2023-02-16T10:39:22.752Z,55.20
2023-02-16T10:42:09.915Z,51.93
2023-02-16T10:44:41.503Z,52.07
2023-02-16T10:47:23.701Z,58.43
2023-02-16T10:49:50.628Z,53.93
2023-02-16T10:52:17.373Z,55.60
2023-02-16T10:54:43.823Z,55.93
2023-02-16T10:59:57.907Z,59.80
2023-02-16T11:02:28.971Z,62.83
2023-02-16T11:04:56.458Z,56.17
2023-02-16T11:07:24.247Z,58.23
2023-02-16T11:09:55.357Z,54.20
2023-02-16T11:12:32.634Z,53.60
2023-02-16T11:15:23.361Z,57.07
2023-02-16T11:18:04.797Z,56.47
2023-02-16T11:20:51.195Z,53.80
2023-02-16T11:23:17.639Z,58.47
2023-02-16T11:25:58.227Z,59.43
2023-02-16T11:28:32.352Z,59.80
2023-02-16T11:31:12.607Z,55.80
2023-02-16T11:33:40.369Z,53.53
2023-02-16T11:36:29.252Z,56.40
2023-02-16T11:39:01.161Z,56.93
2023-02-16T11:41:28.751Z,57.77
2023-02-16T11:43:56.005Z,60.83
2023-02-16T11:46:22.940Z,59.43
2023-02-16T11:48:49.580Z,57.50
2023-02-16T11:51:28.446Z,56.97
2023-02-16T11:54:00.263Z,62.63
2023-02-16T11:56:28.364Z,60.20
2023-02-16T11:59:15.228Z,57.60
2023-02-16T12:01:50.679Z,64.00
2023-02-16T12:04:29.342Z,65.87
2023-02-16T12:07:17.461Z,60.73
2023-02-16T12:09:56.070Z,60.70
2023-02-16T12:12:34.892Z,64.40
2023-02-16T12:15:21.276Z,62.23
2023-02-16T12:17:56.859Z,66.80
2023-02-16T12:20:45.962Z,65.23
2023-02-16T12:23:23.204Z,76.30
2023-02-16T12:26:10.211Z,76.57
2023-02-16T12:28:39.729Z,69.50
2023-02-16T12:31:24.684Z,81.57
2023-02-16T12:34:09.771Z,71.40
2023-02-16T12:36:59.783Z,75.73
2023-02-16T12:39:41.263Z,71.60
2023-02-16T12:42:13.782Z,74.53
2023-02-16T12:44:48.754Z,70.87
2023-02-16T12:47:36.596Z,77.77
2023-02-16T12:50:27.796Z,69.13
2023-02-16T12:52:56.096Z,76.77
2023-02-16T12:55:32.844Z,67.00
2023-02-16T12:58:02.331Z,83.13
2023-02-16T13:00:28.748Z,83.37
2023-02-16T13:03:05.784Z,83.43
2023-02-16T13:05:35.974Z,82.87
2023-02-16T13:08:06.508Z,80.10
2023-02-16T13:10:46.052Z,86.37
2023-02-16T13:13:19.150Z,83.40
2023-02-16T13:15:51.380Z,84.20
2023-02-16T13:18:22.686Z,87.93
2023-02-16T13:20:52.906Z,88.03
2023-02-16T13:23:19.275Z,86.40
2023-02-16T13:25:46.077Z,96.80
2023-02-16T13:28:24.961Z,84.73
2023-02-16T13:31:12.555Z,89.70
2023-02-16T13:33:58.080Z,86.07
2023-02-16T13:36:28.095Z,86.20
2023-02-16T13:39:13.370Z,88.47
2023-02-16T13:41:48.878Z,81.27
2023-02-16T13:44:16.867Z,86.43
2023-02-16T13:46:46.839Z,78.50
2023-02-16T13:49:46.480Z,71.37
2023-02-16T13:52:31.395Z,73.07
2023-02-16T13:55:03.271Z,68.73
2023-02-16T13:57:52.087Z,73.70
2023-02-16T14:00:32.748Z,70.63
2023-02-16T14:02:59.402Z,74.23
2023-02-16T14:05:28.189Z,78.43
2023-02-16T14:08:20.852Z,74.97
2023-02-16T14:10:53.538Z,77.00
2023-02-16T14:13:22.551Z,77.07
2023-02-16T14:15:50.832Z,73.97
2023-02-16T14:18:30.330Z,73.93
2023-02-16T14:21:04.180Z,81.07
2023-02-16T14:23:34.599Z,78.73
2023-02-16T14:26:05.695Z,74.23
2023-02-16T14:28:32.289Z,77.57
2023-02-16T14:31:26.201Z,80.73
2023-02-16T14:33:52.601Z,79.70
2023-02-16T14:36:20.258Z,76.27
2023-02-16T14:38:47.606Z,79.70
2023-02-16T14:41:15.845Z,72.97
2023-02-16T14:43:43.943Z,73.90
2023-02-16T14:46:10.502Z,72.50
2023-02-16T14:48:45.754Z,78.33
2023-02-16T14:51:18.251Z,67.53
2023-02-16T14:53:51.604Z,70.33
2023-02-16T14:56:18.472Z,63.77
2023-02-16T14:58:44.896Z,78.77
2023-02-16T15:01:12.662Z,64.13
2023-02-16T15:03:40.822Z,67.97
2023-02-16T15:06:08.126Z,68.30
2023-02-16T15:08:36.950Z,69.30
2023-02-16T15:11:14.314Z,69.60
2023-02-16T15:13:40.815Z,70.60
2023-02-16T15:16:13.921Z,70.70
2023-02-16T15:18:42.220Z,65.37
2023-02-16T15:21:16.254Z,65.37
2023-02-16T15:23:48.014Z,69.27
2023-02-16T15:26:20.025Z,77.63
2023-02-16T15:28:52.526Z,70.77
2023-02-16T15:31:19.859Z,66.40
2023-02-16T15:33:55.651Z,67.93
2023-02-16T15:36:31.765Z,76.27
2023-02-16T15:39:03.007Z,66.97
2023-02-16T15:41:31.252Z,68.33
2023-02-16T15:43:58.905Z,72.47
2023-02-16T15:46:31.695Z,75.20
2023-02-16T15:48:58.728Z,72.20
2023-02-16T15:51:25.385Z,74.80
2023-02-16T15:53:53.789Z,70.53
2023-02-16T15:56:28.084Z,78.53
2023-02-16T15:58:55.623Z,74.70
2023-02-16T16:01:31.647Z,80.53
2023-02-16T16:04:02.501Z,75.57
2023-02-16T16:06:36.811Z,76.77
2023-02-16T16:09:06.267Z,82.80
2023-02-16T16:11:33.375Z,81.57
2023-02-16T16:14:00.136Z,76.23
2023-02-16T16:16:27.285Z,81.03
2023-02-16T16:18:54.084Z,86.57
2023-02-16T16:21:23.171Z,91.03
2023-02-16T16:23:54.273Z,88.40
2023-02-16T16:26:21.843Z,91.03
2023-02-16T16:28:48.196Z,87.43
2023-02-16T16:31:20.635Z,88.47
2023-02-16T16:33:54.411Z,92.77
2023-02-16T16:36:21.352Z,87.77
2023-02-16T16:38:48.099Z,90.90
2023-02-16T16:41:28.666Z,89.93
2023-02-16T16:43:57.289Z,90.13
2023-02-16T16:46:25.245Z,84.57
2023-02-16T16:48:52.896Z,82.63
2023-02-16T16:51:21.704Z,87.30
2023-02-16T16:53:57.331Z,76.37
2023-02-16T16:56:24.206Z,82.70
2023-02-16T16:58:51.752Z,77.43
2023-02-16T17:01:18.644Z,79.93
2023-02-16T17:03:45.154Z,78.37
2023-02-16T17:06:11.680Z,79.23
2023-02-16T17:08:38.171Z,74.80
2023-02-16T17:11:04.781Z,65.63
2023-02-16T17:13:31.716Z,67.47
2023-02-16T17:16:07.458Z,64.27
2023-02-16T17:18:34.051Z,66.30
2023-02-16T17:21:00.461Z,62.83
2023-02-16T17:23:29.440Z,60.17
2023-02-16T17:25:55.903Z,59.20
2023-02-16T17:28:24.906Z,61.17
2023-02-16T17:30:51.464Z,64.03
2023-02-16T17:33:17.993Z,59.23
2023-02-16T17:35:44.469Z,64.70
2023-02-16T17:38:12.537Z,64.60
2023-02-16T17:40:41.262Z,61.60
2023-02-16T17:43:14.954Z,66.63
2023-02-16T17:45:41.742Z,64.93
2023-02-16T17:48:10.955Z,66.07
2023-02-16T17:50:37.665Z,65.70
2023-02-16T17:53:04.070Z,65.77
2023-02-16T17:55:30.509Z,67.27
2023-02-16T17:57:58.222Z,65.07
2023-02-16T18:00:24.744Z,60.87
2023-02-16T18:02:51.223Z,69.03
2023-02-16T18:05:17.727Z,64.17
2023-02-16T18:07:44.220Z,70.50
2023-02-16T18:10:16.534Z,68.40
2023-02-16T18:12:42.934Z,72.37
2023-02-16T18:15:09.657Z,72.80
2023-02-16T18:17:36.217Z,71.30
2023-02-16T18:20:04.405Z,68.13
2023-02-16T18:22:31.299Z,68.37
2023-02-16T18:24:57.727Z,67.83
2023-02-16T18:27:29.407Z,68.33
2023-02-16T18:29:56.013Z,74.43
2023-02-16T18:32:22.534Z,74.87
2023-02-16T18:34:49.000Z,72.97
2023-02-16T18:37:17.096Z,71.00
2023-02-16T18:39:43.579Z,65.03
2023-02-16T18:42:10.390Z,71.10
2023-02-16T18:44:36.870Z,71.53
2023-02-16T18:47:03.433Z,66.73
2023-02-16T18:49:29.900Z,62.63
2023-02-16T18:51:56.252Z,61.07
2023-02-16T18:54:22.636Z,64.23
2023-02-16T18:56:49.043Z,60.80
2023-02-16T18:59:15.565Z,67.97
2023-02-16T19:01:42.270Z,65.90
2023-02-16T19:04:08.677Z,60.77
2023-02-16T19:06:35.111Z,64.80
2023-02-16T19:09:01.551Z,66.00
2023-02-16T19:11:32.767Z,67.10
2023-02-16T19:13:59.231Z,69.00
2023-02-16T19:16:25.642Z,67.73
2023-02-16T19:18:52.035Z,68.17
2023-02-16T19:21:18.430Z,69.93
2023-02-16T19:23:45.603Z,62.97
2023-02-16T19:26:13.348Z,66.83
2023-02-16T19:28:40.291Z,61.23
2023-02-16T19:31:08.517Z,67.93
2023-02-16T19:33:35.084Z,74.83
2023-02-16T19:36:03.221Z,83.50
2023-02-16T19:38:29.978Z,76.97
2023-02-16T19:40:56.641Z,79.70
2023-02-16T19:43:23.209Z,76.47
2023-02-16T19:45:49.843Z,81.93
2023-02-16T19:48:16.460Z,79.23
2023-02-16T19:50:43.034Z,85.87
2023-02-16T19:53:09.657Z,86.20
2023-02-16T19:55:39.530Z,81.13
2023-02-16T19:58:05.939Z,84.10
2023-02-16T20:00:32.420Z,79.03
2023-02-16T20:02:58.928Z,81.43
2023-02-16T20:05:25.435Z,81.80
2023-02-16T20:07:52.053Z,75.33
2023-02-16T20:10:21.098Z,75.80
2023-02-16T20:12:47.497Z,80.87
2023-02-16T20:15:17.620Z,80.27
2023-02-16T20:17:46.350Z,78.37
2023-02-16T20:20:12.973Z,82.10
2023-02-16T20:22:39.648Z,77.57
2023-02-16T20:25:06.238Z,75.40
2023-02-16T20:27:33.012Z,65.37
2023-02-16T20:30:01.765Z,66.77
2023-02-16T20:32:28.376Z,72.93
2023-02-16T20:34:54.762Z,75.13
2023-02-16T20:37:22.008Z,72.53
2023-02-16T20:39:48.436Z,73.57
2023-02-16T20:42:15.005Z,74.53
2023-02-16T20:44:41.478Z,82.17
2023-02-16T20:47:10.244Z,76.33
2023-02-16T20:49:37.047Z,87.63
2023-02-16T20:52:03.819Z,77.93
2023-02-16T20:54:30.353Z,83.57
2023-02-16T20:56:56.904Z,79.77
2023-02-16T20:59:23.411Z,85.17
2023-02-16T21:01:52.322Z,85.67
2023-02-16T21:04:19.612Z,81.33
2023-02-16T21:06:46.389Z,87.20
2023-02-16T21:09:13.093Z,85.90
2023-02-16T21:11:40.136Z,86.97
2023-02-16T21:14:07.554Z,98.03
2023-02-16T21:16:34.317Z,96.57
2023-02-16T21:19:00.804Z,89.80
2023-02-16T21:21:27.229Z,93.47
2023-02-16T21:23:54.709Z,92.57
2023-02-16T21:26:22.481Z,92.97
2023-02-16T21:28:49.062Z,89.07
2023-02-16T21:31:20.746Z,90.03
2023-02-16T21:33:47.597Z,90.20
2023-02-16T21:36:15.357Z,96.70
2023-02-16T21:38:42.194Z,89.00
2023-02-16T21:41:25.016Z,84.47
2023-02-16T21:43:54.371Z,89.53
2023-02-16T21:46:21.116Z,76.40
2023-02-16T21:48:48.140Z,90.43
2023-02-16T21:51:16.134Z,85.00
2023-02-16T21:53:42.884Z,81.00
2023-02-16T21:56:19.437Z,83.20
2023-02-16T21:58:47.885Z,89.23
2023-02-16T22:01:14.766Z,88.17
2023-02-16T22:03:41.345Z,88.13
2023-02-16T22:06:08.336Z,82.17
2023-02-16T22:08:36.869Z,80.27
2023-02-16T22:11:13.166Z,90.90
2023-02-16T22:13:40.216Z,86.80
2023-02-16T22:16:14.149Z,79.13
2023-02-16T22:18:40.834Z,85.60
2023-02-16T22:21:07.735Z,84.33
2023-02-16T22:23:34.547Z,78.17
2023-02-16T22:26:01.146Z,77.90
2023-02-16T22:28:27.560Z,71.13
2023-02-16T22:30:54.034Z,72.57
2023-02-16T22:33:20.397Z,70.17
2023-02-16T22:35:46.822Z,68.53
2023-02-16T22:38:13.394Z,70.27
2023-02-16T22:40:39.980Z,71.60
2023-02-16T22:43:06.369Z,68.93
2023-02-16T22:45:34.566Z,69.37
2023-02-16T22:48:01.037Z,64.37
2023-02-16T22:50:27.441Z,62.40
2023-02-16T22:52:54.111Z,61.27
2023-02-16T22:55:20.452Z,64.90
2023-02-16T22:57:47.237Z,59.73
2023-02-16T23:00:15.201Z,64.10
2023-02-16T23:02:41.593Z,61.47
2023-02-16T23:05:08.123Z,61.80
2023-02-16T23:07:35.106Z,62.57
2023-02-16T23:10:01.747Z,62.27
2023-02-16T23:12:28.268Z,59.33
2023-02-16T23:14:54.640Z,64.43
2023-02-16T23:17:21.105Z,57.60
2023-02-16T23:19:49.075Z,56.20
2023-02-16T23:22:15.483Z,59.30
2023-02-16T23:24:41.950Z,59.20
2023-02-16T23:27:08.435Z,64.57
2023-02-16T23:29:34.967Z,61.70
2023-02-16T23:32:01.386Z,60.20
2023-02-16T23:34:27.799Z,56.53
2023-02-16T23:36:55.483Z,57.77
2023-02-16T23:39:21.918Z,60.60
2023-02-16T23:41:48.331Z,64.43
2023-02-16T23:44:14.962Z,60.57
2023-02-16T23:46:41.381Z,61.80
2023-02-16T23:49:08.089Z,63.07
2023-02-16T23:51:34.612Z,62.50
2023-02-16T23:54:01.067Z,62.17
2023-02-16T23:56:28.146Z,61.17
2023-02-16T23:58:59.060Z,61.20
